Palmerston, Tasmania

6:50 AM AEST on September 29, 2016 (GMT +1000)
Saint Johns Circle | | Change Station

Elev 42 ft 42.73 °S, 147.44 °E | Updated 3 minutes ago

Mostly Cloudy
Mostly Cloudy
50.7 °F
Feels Like 50.7 °F
N
1.2
Wind Variable Wind from SW
Gusts 3.1 mph

Today
High -- | Low -- °F
--% Chance of Precip.
Yesterday
High -- | Low -- °F
Precip. -- in
Pressure 29.50 in
Visibility 6.2 miles
Clouds Mostly Cloudy 2500 ft
Dew Point 43 °F
Humidity 74%
Rainfall 0.00 in
Snow Depth Not available.
5:47 AM 6:14 PM
Waning Crescent, 4% visible
METAR YMHB 282030Z 01008KT 9999 BKN025 14/09 Q0999
Pressure 29.50 in
Visibility 6.2 miles
Clouds Mostly Cloudy 2500 ft
Dew Point 43 °F
Humidity 74%
Rainfall 0.00 in
Snow Depth Not available.
5:47 AM 6:14 PM
Waning Crescent, 4% visible
METAR YMHB 282030Z 01008KT 9999 BKN025 14/09 Q0999

10-Day Weather Forecast

Almanac

Astronomy

Sep. 29, 2016 Rise Set
Actual Time
Civil Twilight
Nautical Twilight
Astronomical Twilight
Moon
Length of Visible Light
Length of Day
Tomorrow will be .
, % of the Moon is Illuminated

Today's Extremes

Country Highs Country Lows

Community

WunderPhotos

Upload Photos

1,942,325 photos uploaded!

WunderBlog® & News

Nearby

Air Quality

  Air Quality AQ Index Pollutant
Not available.

Snow Depth

Station Depth Elevation

Earthquake Activity

City Distance Mag. Time & Date
Minimum magnitude displayed is 2.5.

Coastal Water Temperatures

Place Temperature

Stations

Nearby Weather Stations

Station Location Temp. Windchill Dew Point Humidity Wind Precip. Elev Updated Type